TAF and METAR

METAR for Ekofisk Oil Pltf

ENLE 191520Z 19022KT 9999 FEW030 SCT160 06/05 Q1021 W07/S4
Report created 19. mar 16:20
wind 22 knots from S (190°) visibility > 10km some clouds (~25% cover) at 3000 feet scattered clouds (~50% cover) at 16000 feet Temperature 6° with dewpoint at 5° (Humidity 93.30%) Pressure 1021 hPa

TAF for Ekofisk Oil Pltf

TAF ENLE 191400Z 1915/1924 19025KT 9999 FEW020 BKN100 PROB30 1915/1920 BKN007 BECMG 1922/1924 25025KT
Report created 19. mar 15:00

between 19. mar 16:00 - 19. mar 01:00

wind 25 knots from S (190°) visibility > 10km some clouds (~25% cover) at 2000 feet broken clouds (~75% cover) at 10000 feet

probably (~30%) between 19. mar 16:00 - 19. mar 21:00

broken clouds (~75% cover) at 700 feet

becoming between 19. mar 23:00 - 19. mar 01:00

wind 25 knots from WSW (250°)
Ekofisk Oil Pltf in Norway at 3m

Latest 5 airports